Weather observations for the past three days for
Oklahoma City, Wiley Post Airport
| Date | Time (cdt) | Wind (mph) | Vis. (mi.) | Weather | Sky Cond. | Temperature (ºF) | Relative Humidity | Wind Chill (°F) | Heat Index (°F) | Pressure | Precipitation (in) | ||||||
|---|---|---|---|---|---|---|---|---|---|---|---|---|---|---|---|---|---|
| Air | Dwpt | 6 hour | altimeter (in) | sea level (mb) | 1 hr | 3 hr | 6 hr | ||||||||||
| Max. | Min. | ||||||||||||||||
| 06 | 18:53 | NE 12 | 10.00 | Partly Cloudy | SCT055 | 64 | 39 | 66 | 60.1 | 40% | 30.01 | 1015.7 | |||||
| 06 | 17:53 | NE 9 | 10.00 | A Few Clouds | FEW120 | 64.9 | 39 | 39% | 29.99 | 1015.1 | |||||||
| 06 | 16:53 | E 14 G 20 | 10.00 | A Few Clouds | FEW049 | 64.9 | 39.9 | 40% | 29.99 | 1014.9 | |||||||
| 06 | 15:53 | NE 13 G 22 | 10.00 | Mostly Cloudy | BKN047 | 63 | 41 | 45% | 30 | 1015.5 | |||||||
| 06 | 14:53 | NE 16 G 26 | 10.00 | Overcast | OVC045 | 63 | 41 | 45% | 30.01 | 1015.8 | |||||||
| 06 | 13:53 | NE 12 G 20 | 10.00 | Overcast | OVC043 | 61 | 39.9 | 46% | 30.02 | 1016.3 | |||||||
| 06 | 12:53 | E 12 G 23 | 10.00 | Mostly Cloudy | BKN041 | 62.1 | 39.9 | 62.1 | 48 | 44% | 30.04 | 1016.8 | |||||
| 06 | 11:53 | NE 16 G 25 | 10.00 | A Few Clouds | FEW035 | 60.1 | 39 | 46% | 30.05 | 1017.0 | |||||||
| 06 | 10:53 | E 15 G 26 | 10.00 | A Few Clouds | FEW029 | 55.9 | 39.9 | 55% | 30.05 | 1017.4 | |||||||
| 06 | 09:53 | NE 16 G 25 | 10.00 | Mostly Cloudy | BKN021 | 51.1 | 41 | 69% | 30.04 | 1017.0 | |||||||
| 06 | 08:53 | NE 15 G 25 | 10.00 | Overcast | OVC017 | 50 | 41 | 71% | 45 | 30.03 | 1016.7 | ||||||
| 06 | 07:53 | N 17 G 24 | 10.00 | Mostly Cloudy | BKN015 | 48.9 | 42.1 | 77% | 43 | 30.02 | 1016.5 | ||||||
| 06 | 06:53 | NE 14 | 10.00 | Overcast | BKN017 OVC022 | 48 | 42.1 | 50 | 48 | 80% | 43 | 29.99 | 1015.3 | ||||
| 06 | 05:53 | N 10 | 10.00 | Mostly Cloudy | BKN044 | 48 | 41 | 77% | 44 | 29.97 | 1014.9 | ||||||
| 06 | 04:53 | N 10 | 10.00 | Overcast | SCT024 SCT034 OVC043 | 48.9 | 41 | 74% | 45 | 29.99 | 1015.4 | ||||||
| 06 | 03:53 | N 12 | 10.00 | Overcast | OVC043 | 48.9 | 39 | 69% | 45 | 29.95 | 1014.0 | ||||||
| 06 | 02:53 | N 13 G 26 | 10.00 | Overcast | OVC038 | 48.9 | 39 | 69% | 44 | 29.92 | 1012.8 | ||||||
| 06 | 01:53 | NE 13 | 10.00 | Overcast | OVC036 | 50 | 37.9 | 63% | 46 | 29.91 | 1012.7 | ||||||
| 06 | 00:53 | NE 16 | 10.00 | Overcast | OVC032 | 50 | 37.9 | 50 | 48.9 | 63% | 45 | 29.91 | 1012.5 | ||||
| 05 | 23:53 | NE 16 | 10.00 | Overcast | OVC030 | 50 | 37.9 | 63% | 45 | 29.9 | 1012.3 | ||||||
| 05 | 22:53 | N 18 G 28 | 10.00 | Overcast | OVC023 | 50 | 41 | 71% | 44 | 29.91 | 1012.3 | ||||||
| 05 | 21:53 | NE 18 G 31 | 10.00 | Overcast | OVC017 | 48.9 | 43 | 80% | 43 | 29.87 | 1010.8 | ||||||
| 05 | 20:53 | N 13 G 24 | 10.00 | Overcast | OVC016 | 48.9 | 43 | 80% | 44 | 29.87 | 1010.9 | ||||||
| 05 | 19:53 | N 16 G 24 | 10.00 | Overcast | OVC017 | 50 | 43 | 77% | 45 | 29.84 | 1009.9 | ||||||
| 05 | 18:53 | N 18 G 29 | 10.00 | Overcast | OVC021 | 51.1 | 43 | 57 | 51.1 | 74% | 29.82 | 1009.1 | |||||
| 05 | 17:53 | N 17 G 26 | 10.00 | Overcast | OVC021 | 52 | 43 | 72% | 29.81 | 1008.8 | |||||||
| 05 | 16:53 | N 21 G 28 | 10.00 | Overcast and Breezy | OVC022 | 54 | 43 | 67% | 29.8 | 1008.2 | |||||||
| 05 | 15:53 | N 22 G 32 | 10.00 | Overcast and Breezy | OVC020 | 55 | 44.1 | 67% | 29.78 | 1007.5 | |||||||
| 05 | 14:53 | N 18 G 31 | 10.00 | Overcast | OVC016 | 55 | 46 | 72% | 29.77 | 1007.2 | |||||||
| 05 | 13:53 | N 22 G 32 | 10.00 | Overcast and Breezy | OVC014 | 55 | 48 | 77% | 29.76 | 1007.0 | |||||||
| 05 | 12:53 | N 21 G 29 | 10.00 | Overcast and Breezy | OVC014 | 57 | 48.9 | 73 | 57 | 74% | 29.74 | 1006.1 | |||||
| 05 | 11:53 | N 21 G 31 | 10.00 | Overcast and Breezy | OVC012 | 57 | 50 | 78% | 29.71 | 1005.2 | |||||||
| 05 | 10:53 | N 21 G 32 | 10.00 | Overcast and Breezy | OVC012 | 59 | 53.1 | 81% | 29.66 | 1003.5 | |||||||
| 05 | 09:53 | N 15 G 23 | 10.00 | Mostly Cloudy | BKN013 | 69.1 | 63 | 81% | 29.61 | 1001.2 | |||||||
| 05 | 08:53 | SE 3 | 10.00 | Fair | CLR | 71.1 | 61 | 71% | 29.58 | 1000.1 | |||||||
| 05 | 07:53 | Calm | 10.00 | Fair | CLR | 69.1 | 62.1 | 78% | 29.57 | 999.9 | |||||||
| 05 | 06:53 | Vrbl 6 | 10.00 | Fair | CLR | 69.1 | 61 | 73.9 | 69.1 | 76% | 29.54 | 998.8 | |||||
| 05 | 05:53 | S 13 G 23 | 10.00 | Fair | CLR | 71.1 | 61 | 71% | 29.51 | 997.7 | |||||||
| 05 | 04:53 | S 14 G 25 | 10.00 | Fair | CLR | 71.1 | 62.1 | 73% | 29.5 | 997.2 | |||||||
| 05 | 03:53 | S 17 | 10.00 | Fair | CLR | 72 | 62.1 | 71% | 29.51 | 997.5 | |||||||
| 05 | 02:53 | S 20 G 29 | 10.00 | Fair | CLR | 73.9 | 62.1 | 67% | 29.52 | 997.8 | |||||||
| 05 | 01:53 | S 18 G 29 | 10.00 | Fair | CLR | 72 | 62.1 | 71% | 29.54 | 998.6 | |||||||
| 05 | 00:53 | S 20 G 31 | 10.00 | Fair | CLR | 72 | 62.1 | 80.1 | 72 | 71% | 29.55 | 999.0 | |||||
| 04 | 23:53 | S 22 G 31 | 10.00 | Fair and Breezy | CLR | 73 | 62.1 | 69% | 29.56 | 999.5 | |||||||
| 04 | 22:53 | S 20 G 30 | 10.00 | Fair | CLR | 73 | 62.1 | 69% | 29.57 | 1000.0 | |||||||
| 04 | 21:53 | S 21 G 35 | 10.00 | Fair and Breezy | CLR | 73.9 | 62.1 | 67% | 29.56 | 999.7 | |||||||
| 04 | 20:53 | S 21 G 32 | 10.00 | Fair and Breezy | CLR | 75.9 | 61 | 60% | 78 | 29.56 | 999.4 | ||||||
| 04 | 19:53 | S 26 G 35 | 10.00 | Fair and Windy | CLR | 79 | 61 | 54% | 80 | 29.56 | 999.7 | ||||||
| 04 | 18:53 | S 25 G 35 | 10.00 | Fair and Breezy | CLR | 80.1 | 61 | 84 | 79 | 52% | 81 | 29.57 | 1000.1 | ||||
| 04 | 17:53 | S 22 G 33 | 10.00 | Fair and Breezy | CLR | 82 | 60.1 | 47% | 82 | 29.59 | 1000.5 | ||||||
| 04 | 16:53 | S 21 G 32 | 10.00 | Fair and Breezy | CLR | 82 | 57.9 | 44% | 82 | 29.6 | 1001.0 | ||||||
| 04 | 15:53 | S 21 G 36 | 10.00 | Fair and Breezy | CLR | 82.9 | 57.9 | 43% | 83 | 29.63 | 1002.0 | ||||||
| 04 | 14:53 | S 25 G 36 | 10.00 | Fair and Breezy | CLR | 82 | 55.9 | 41% | 82 | 29.66 | 1002.9 | ||||||
| 04 | 13:53 | S 22 G 35 | 10.00 | Fair and Breezy | CLR | 81 | 55 | 41% | 81 | 29.68 | 1003.6 | ||||||
| 04 | 12:53 | S 24 G 35 | 10.00 | Fair and Breezy | CLR | 79 | 54 | 79 | 62.1 | 42% | 79 | 29.71 | 1004.6 | ||||
| 04 | 11:53 | SW 25 G 35 | 10.00 | Fair and Breezy | CLR | 77 | 52 | 42% | 78 | 29.73 | 1005.2 | ||||||
| 04 | 10:53 | S 26 G 37 | 10.00 | Fair and Windy | CLR | 73.9 | 51.1 | 45% | 29.74 | 1005.6 | |||||||
| 04 | 09:53 | S 23 G 31 | 10.00 | Fair and Breezy | CLR | 71.1 | 50 | 47% | 29.75 | 1006.2 | |||||||
| 04 | 08:53 | S 23 G 30 | 10.00 | Fair and Breezy | CLR | 66.9 | 48.9 | 53% | 29.77 | 1006.8 | |||||||
| 04 | 07:53 | S 17 G 25 | 10.00 | Fair | CLR | 64 | 48 | 56% | 29.77 | 1007.1 | |||||||
| 04 | 06:53 | S 16 | 10.00 | Fair | CLR | 62.1 | 46.9 | 68 | 62.1 | 58% | 29.77 | 1007.0 | |||||
| 04 | 05:53 | S 15 G 25 | 10.00 | Fair | CLR | 63 | 46 | 54% | 29.79 | 1007.4 | |||||||
| 04 | 04:53 | S 17 | 10.00 | Fair | CLR | 64 | 45 | 50% | 29.79 | 1007.5 | |||||||
| 04 | 03:53 | S 17 | 10.00 | Fair | CLR | 64.9 | 45 | 49% | 29.81 | 1007.9 | |||||||
| 04 | 02:53 | S 18 G 26 | 10.00 | Fair | CLR | 64.9 | 44.1 | 47% | 29.82 | 1008.3 | |||||||
| 04 | 01:53 | S 17 | 10.00 | Fair | CLR | 66 | 43 | 43% | 29.84 | 1009.0 | |||||||
| 04 | 00:53 | S 20 G 30 | 10.00 | Fair | CLR | 68 | 42.1 | 80.1 | 68 | 39% | 29.86 | 1009.5 | |||||
| 03 | 23:53 | S 22 G 32 | 10.00 | Fair and Breezy | CLR | 69.1 | 43 | 39% | 29.87 | 1010.1 | |||||||
| 03 | 22:53 | S 18 G 28 | 10.00 | Fair | CLR | 70 | 42.1 | 37% | 29.88 | 1010.6 | |||||||
| 03 | 21:53 | S 18 G 29 | 10.00 | Fair | CLR | 72 | 42.1 | 34% | 29.88 | 1010.7 | |||||||
| 03 | 20:53 | S 18 G 25 | 10.00 | Fair | CLR | 73 | 42.1 | 33% | 29.87 | 1010.5 | |||||||
| 03 | 19:53 | S 18 | 10.00 | Fair | CLR | 75.9 | 39.9 | 27% | 77 | 29.87 | 1010.6 | ||||||
| Date | Time (cdt) | Wind (mph) | Vis. (mi.) | Weather | Sky Cond. | Air | Dwpt | Max. | Min. | Relative Humidity | Wind Chill (°F) | Heat Index (°F) | altimeter (in) | sea level (mb) | 1 hr | 3 hr | 6 hr |
| 6 hour | |||||||||||||||||
| Temperature (ºF) | Pressure | Precipitation (in) | |||||||||||||||